createdAt,value
2023-10-09T00:03:41.911Z,0
2023-10-09T00:06:42.111Z,0
2023-10-09T00:09:42.722Z,0
2023-10-09T00:12:41.416Z,0
2023-10-09T00:18:42.622Z,0
2023-10-09T00:21:41.992Z,0
2023-10-09T00:24:42.374Z,0
2023-10-09T00:27:43.284Z,0
2023-10-09T00:33:43.813Z,0
2023-10-09T00:36:45.493Z,0
2023-10-09T00:39:43.614Z,0
2023-10-09T00:42:44.260Z,0
2023-10-09T00:48:43.648Z,0
2023-10-09T00:51:43.883Z,0
2023-10-09T00:54:44.928Z,0
2023-10-09T00:57:44.268Z,0
2023-10-09T01:03:41.002Z,0
2023-10-09T01:06:42.503Z,0
2023-10-09T01:09:40.653Z,0
2023-10-09T01:12:41.206Z,0
2023-10-09T01:15:43.428Z,0
2023-10-09T01:18:41.410Z,0
2023-10-09T01:21:41.572Z,0
2023-10-09T01:24:42.304Z,0
2023-10-09T01:27:41.568Z,0
2023-10-09T01:30:43.473Z,0
2023-10-09T01:33:42.328Z,0
2023-10-09T01:36:41.986Z,0
2023-10-09T01:39:42.792Z,0
2023-10-09T01:42:43.386Z,0.1
2023-10-09T01:45:41.528Z,0.1
2023-10-09T01:48:42.461Z,0.1
2023-10-09T01:51:43.700Z,0.1
2023-10-09T01:54:41.698Z,0.1
2023-10-09T01:57:41.779Z,0.3
2023-10-09T02:00:39.822Z,0.3
2023-10-09T02:03:38.992Z,0.3
2023-10-09T02:06:38.493Z,0.3
2023-10-09T02:09:39.432Z,0.3
2023-10-09T02:12:38.913Z,0.3
2023-10-09T02:15:39.152Z,0.3
2023-10-09T02:18:40.136Z,0.3
2023-10-09T02:21:41.689Z,0.3
2023-10-09T02:24:40.325Z,0.3
2023-10-09T02:29:11.685Z,0.3
2023-10-09T02:30:43.153Z,0.3
2023-10-09T02:33:41.686Z,0.3
2023-10-09T02:36:43.065Z,0.3
2023-10-09T02:39:41.220Z,0.2
2023-10-09T02:42:41.629Z,0.1
2023-10-09T02:45:44.332Z,0.1
2023-10-09T02:48:41.678Z,0.1
2023-10-09T02:52:23.597Z,0.1
2023-10-09T02:54:42.396Z,0
2023-10-09T02:57:45.353Z,0
2023-10-09T03:00:37.368Z,0
2023-10-09T03:03:38.387Z,0
2023-10-09T03:06:38.476Z,0
2023-10-09T03:09:37.281Z,0
2023-10-09T03:12:37.730Z,0
2023-10-09T03:15:38.544Z,0
2023-10-09T03:18:37.839Z,0
2023-10-09T03:24:38.788Z,0.1
2023-10-09T03:27:52.462Z,0.4
2023-10-09T03:30:39.764Z,0.6
2023-10-09T03:33:41.486Z,0.9
2023-10-09T03:36:39.268Z,1
2023-10-09T03:39:39.215Z,1
2023-10-09T03:42:40.237Z,1.1
2023-10-09T03:45:38.792Z,1.1
2023-10-09T03:48:39.051Z,1.1
2023-10-09T03:51:39.973Z,1.1
2023-10-09T03:54:39.644Z,1.1
2023-10-09T03:57:39.678Z,1.2
2023-10-09T04:00:37.247Z,1.2
2023-10-09T04:03:39.493Z,1.2
2023-10-09T04:06:36.918Z,1.2
2023-10-09T04:09:37.623Z,1.2
2023-10-09T04:12:39.185Z,1.2
2023-10-09T04:15:37.803Z,1.2
2023-10-09T04:18:38.863Z,1.1
2023-10-09T04:21:40.234Z,1.1
2023-10-09T04:24:41.731Z,0.8
2023-10-09T04:27:39.969Z,0.6
2023-10-09T04:30:39.689Z,0.5
2023-10-09T04:33:39.726Z,0.4
2023-10-09T04:36:40.275Z,0.4
2023-10-09T04:42:40.185Z,0.3
2023-10-09T04:45:40.559Z,0.3
2023-10-09T04:48:46.467Z,0.5
2023-10-09T04:51:40.337Z,0.5
2023-10-09T04:54:40.768Z,0.5
2023-10-09T04:57:41.672Z,0.5
2023-10-09T05:00:35.262Z,0.5
2023-10-09T05:03:35.741Z,0.7
2023-10-09T05:06:36.155Z,0.8
2023-10-09T05:09:35.884Z,1
2023-10-09T05:12:37.972Z,1
2023-10-09T05:15:37.651Z,1.2
2023-10-09T05:18:36.522Z,1.3
2023-10-09T05:21:38.124Z,1.3
2023-10-09T05:24:39.433Z,1.3
2023-10-09T05:27:37.261Z,1.1
2023-10-09T05:30:37.555Z,1.3
2023-10-09T05:33:38.731Z,1.3
2023-10-09T05:36:37.301Z,1.3
2023-10-09T05:39:37.569Z,1.3
2023-10-09T05:42:38.366Z,1.5
2023-10-09T05:48:38.283Z,1.3
2023-10-09T05:51:38.775Z,1.3
2023-10-09T05:54:39.333Z,1.3
2023-10-09T05:57:37.497Z,1.4
2023-10-09T06:00:34.088Z,1.2
2023-10-09T06:03:47.950Z,1.1
2023-10-09T06:06:33.914Z,1.1
2023-10-09T06:09:34.899Z,1.1
2023-10-09T06:12:37.200Z,1
2023-10-09T06:15:34.376Z,1
2023-10-09T06:18:36.171Z,1.1
2023-10-09T06:21:34.540Z,1.1
2023-10-09T06:24:34.966Z,1.3
2023-10-09T06:27:35.486Z,1.2
2023-10-09T06:33:36.721Z,1.3
2023-10-09T06:36:35.624Z,1.3
2023-10-09T06:39:37.592Z,1.3
2023-10-09T06:42:35.770Z,1.2
2023-10-09T06:48:36.909Z,1.1
2023-10-09T06:51:35.508Z,1.1
2023-10-09T06:54:41.713Z,1
2023-10-09T06:57:36.568Z,1
2023-10-09T07:00:33.041Z,0.9
2023-10-09T07:03:33.700Z,0.8
2023-10-09T07:06:35.203Z,0.8
2023-10-09T07:09:33.014Z,0.7
2023-10-09T07:12:34.633Z,0.6
2023-10-09T07:18:34.109Z,0.4
2023-10-09T07:21:38.337Z,0.3
2023-10-09T07:24:35.867Z,0.2
2023-10-09T07:27:34.154Z,0.2
2023-10-09T07:33:35.129Z,0.1
2023-10-09T07:36:33.591Z,0
2023-10-09T07:39:33.945Z,0
2023-10-09T07:42:35.075Z,0
2023-10-09T07:48:34.673Z,0
2023-10-09T07:51:40.204Z,0
2023-10-09T07:54:36.840Z,0
2023-10-09T07:57:36.701Z,0
2023-10-09T08:03:35.944Z,0
2023-10-09T08:06:35.925Z,0
2023-10-09T08:09:55.480Z,0
2023-10-09T08:12:35.565Z,0
2023-10-09T08:18:36.741Z,0
2023-10-09T08:21:38.684Z,0
2023-10-09T08:24:36.186Z,0
2023-10-09T08:27:41.922Z,0
2023-10-09T08:35:22.426Z,0
2023-10-09T08:36:54.589Z,0
2023-10-09T08:39:39.016Z,0
2023-10-09T08:42:36.726Z,0
2023-10-09T08:48:38.232Z,0
2023-10-09T08:51:37.025Z,0
2023-10-09T08:54:37.336Z,0
2023-10-09T08:57:38.547Z,0
2023-10-09T09:03:37.018Z,0
2023-10-09T09:06:45.634Z,0
2023-10-09T09:09:36.575Z,0
2023-10-09T09:12:36.595Z,0
2023-10-09T09:15:37.890Z,0
2023-10-09T09:18:37.821Z,0
2023-10-09T09:21:36.916Z,0
2023-10-09T09:24:37.956Z,0
2023-10-09T09:27:39.510Z,0
2023-10-09T09:30:37.650Z,0
2023-10-09T09:33:38.824Z,0.1
2023-10-09T09:36:40.208Z,0.2
2023-10-09T09:39:45.630Z,0.2
2023-10-09T09:42:38.342Z,0.2
2023-10-09T09:45:39.346Z,0.2
2023-10-09T09:48:39.411Z,0.2
2023-10-09T09:51:38.370Z,0.2
2023-10-09T09:54:42.855Z,0.2
2023-10-09T09:57:38.267Z,0.2
2023-10-09T10:00:38.685Z,0.2
2023-10-09T10:03:40.764Z,0.1
2023-10-09T10:06:38.378Z,0.1
2023-10-09T10:09:38.493Z,0.1
2023-10-09T10:12:39.315Z,0.1
2023-10-09T10:15:38.825Z,0.1
2023-10-09T10:18:39.587Z,0.1
2023-10-09T10:21:39.753Z,0.1
2023-10-09T10:24:41.536Z,0.1
2023-10-09T10:27:39.564Z,0.3
2023-10-09T10:30:40.570Z,0.1
2023-10-09T10:33:42.055Z,0.1
2023-10-09T10:36:41.350Z,0.1
2023-10-09T10:39:40.443Z,0.1
2023-10-09T10:42:41.331Z,0.1
2023-10-09T10:45:39.951Z,0.1
2023-10-09T10:48:40.550Z,0.1
2023-10-09T10:51:41.104Z,0.1
2023-10-09T10:54:43.526Z,0.1
2023-10-09T10:57:41.504Z,0.1
2023-10-09T11:00:46.287Z,0.1
2023-10-09T11:03:42.282Z,0.1
2023-10-09T11:06:41.566Z,0.2
2023-10-09T11:09:58.136Z,0.2
2023-10-09T11:12:41.598Z,0.2
2023-10-09T11:15:41.785Z,0.3
2023-10-09T11:18:42.812Z,0.3
2023-10-09T11:21:43.398Z,0.4
2023-10-09T11:24:42.542Z,0.3
2023-10-09T11:27:42.077Z,0.5
2023-10-09T11:30:43.838Z,0.6
2023-10-09T11:33:42.025Z,0.6
2023-10-09T11:36:42.179Z,0.6
2023-10-09T11:39:43.107Z,0.6
2023-10-09T11:42:41.885Z,0.8
2023-10-09T11:45:42.114Z,0.8
2023-10-09T11:48:43.317Z,0.8
2023-10-09T11:51:42.492Z,0.8
2023-10-09T11:54:44.450Z,0.8
2023-10-09T11:57:44.070Z,0.8
2023-10-09T12:03:43.917Z,0.6
2023-10-09T12:06:43.888Z,0.6
2023-10-09T12:09:43.512Z,0.6
2023-10-09T12:13:01.993Z,0.6
2023-10-09T12:18:47.109Z,0.5
2023-10-09T12:21:44.083Z,0.4
2023-10-09T12:24:47.437Z,0.3
2023-10-09T12:27:46.521Z,0.1
2023-10-09T12:33:45.375Z,0.1
2023-10-09T12:36:45.675Z,0.1
2023-10-09T12:40:26.624Z,0
2023-10-09T12:42:46.002Z,0
2023-10-09T12:45:45.067Z,0
2023-10-09T12:48:46.610Z,0
2023-10-09T12:51:46.786Z,0
2023-10-09T12:54:48.274Z,0
2023-10-09T12:57:47.014Z,0
2023-10-09T13:03:46.866Z,0
2023-10-09T13:06:47.399Z,0
2023-10-09T13:09:46.830Z,0
2023-10-09T13:12:46.474Z,0
2023-10-09T13:21:46.943Z,0
2023-10-09T13:24:49.770Z,0
2023-10-09T13:28:02.568Z,0
2023-10-09T13:33:47.920Z,0
2023-10-09T13:36:48.934Z,0
2023-10-09T13:39:47.215Z,0
2023-10-09T13:42:47.561Z,0
2023-10-09T13:48:48.251Z,0
2023-10-09T13:51:50.133Z,0
2023-10-09T13:54:48.652Z,0
2023-10-09T13:57:48.095Z,0
2023-10-09T14:03:48.371Z,0
2023-10-09T14:06:47.436Z,0
2023-10-09T14:09:47.932Z,0
2023-10-09T14:12:48.108Z,0
2023-10-09T14:15:50.518Z,0
2023-10-09T14:18:47.365Z,0
2023-10-09T14:24:50.724Z,0
2023-10-09T14:27:47.264Z,0
2023-10-09T14:30:47.883Z,0
2023-10-09T14:33:49.223Z,0
2023-10-09T14:39:47.640Z,0
2023-10-09T14:42:48.374Z,0
2023-10-09T14:45:48.531Z,0
2023-10-09T14:48:48.516Z,0
2023-10-09T14:54:50.754Z,0
2023-10-09T14:57:49.436Z,0
2023-10-09T15:00:48.330Z,0
2023-10-09T15:03:48.114Z,0
2023-10-09T15:06:48.083Z,0
2023-10-09T15:09:48.961Z,0
2023-10-09T15:12:50.526Z,0
2023-10-09T15:15:49.108Z,0
2023-10-09T15:18:49.344Z,0
2023-10-09T15:21:50.976Z,0
2023-10-09T15:24:49.539Z,0
2023-10-09T15:27:49.295Z,0
2023-10-09T15:30:50.184Z,0
2023-10-09T15:33:51.514Z,0
2023-10-09T15:36:49.089Z,0
2023-10-09T15:39:49.882Z,0
2023-10-09T15:42:52.526Z,0
2023-10-09T15:45:50.074Z,0
2023-10-09T15:48:50.779Z,0
2023-10-09T15:51:51.518Z,0
2023-10-09T15:54:50.039Z,0
2023-10-09T15:58:03.196Z,0
2023-10-09T16:00:48.215Z,0
2023-10-09T16:03:48.760Z,0
2023-10-09T16:06:49.354Z,0
2023-10-09T16:09:50.690Z,0
2023-10-09T16:12:48.814Z,0
2023-10-09T16:15:49.416Z,0
2023-10-09T16:18:51.180Z,0
2023-10-09T16:21:48.924Z,0
2023-10-09T16:24:52.565Z,0
2023-10-09T16:27:50.365Z,0
2023-10-09T16:33:49.644Z,0
2023-10-09T16:36:50.192Z,0
2023-10-09T16:39:50.357Z,0
2023-10-09T16:42:49.894Z,0
2023-10-09T16:48:52.499Z,0
2023-10-09T16:51:54.279Z,0
2023-10-09T16:54:50.764Z,0
2023-10-09T16:57:50.868Z,0
2023-10-09T17:03:52.593Z,0
2023-10-09T17:09:47.651Z,0
2023-10-09T17:12:51.722Z,0
2023-10-09T17:15:48.809Z,0
2023-10-09T17:18:48.677Z,0
2023-10-09T17:21:48.887Z,0
2023-10-09T17:24:49.795Z,0
2023-10-09T17:27:47.574Z,0
2023-10-09T17:30:48.559Z,0
2023-10-09T17:33:50.150Z,0
2023-10-09T17:36:47.712Z,0
2023-10-09T17:39:48.130Z,0
2023-10-09T17:42:48.917Z,0
2023-10-09T17:45:48.079Z,0
2023-10-09T17:48:48.685Z,0
2023-10-09T17:51:48.688Z,0
2023-10-09T17:54:48.100Z,0
2023-10-09T17:57:48.306Z,0
2023-10-09T18:00:47.653Z,0
2023-10-09T18:03:47.960Z,0
2023-10-09T18:06:46.340Z,0
2023-10-09T18:09:47.712Z,0
2023-10-09T18:12:47.247Z,0
2023-10-09T18:15:46.943Z,0
2023-10-09T18:18:48.523Z,0
2023-10-09T18:21:51.456Z,0
2023-10-09T18:27:47.656Z,0
2023-10-09T18:30:49.961Z,0
2023-10-09T18:33:47.636Z,0
2023-10-09T18:36:47.839Z,0
2023-10-09T18:39:48.915Z,0
2023-10-09T18:42:47.559Z,0
2023-10-09T18:45:47.596Z,0
2023-10-09T18:48:48.627Z,0
2023-10-09T18:51:48.075Z,0
2023-10-09T18:54:49.382Z,0
2023-10-09T18:57:49.817Z,0
2023-10-09T19:00:47.466Z,0
2023-10-09T19:03:47.129Z,0
2023-10-09T19:06:47.928Z,0
2023-10-09T19:09:47.484Z,0
2023-10-09T19:12:47.467Z,0
2023-10-09T19:15:47.910Z,0
2023-10-09T19:18:50.534Z,0
2023-10-09T19:21:48.009Z,0
2023-10-09T19:24:48.698Z,0
2023-10-09T19:27:50.209Z,0
2023-10-09T19:30:48.533Z,0
2023-10-09T19:33:49.660Z,0
2023-10-09T19:36:49.362Z,0
2023-10-09T19:39:48.161Z,0
2023-10-09T19:42:48.272Z,0
2023-10-09T19:45:49.171Z,0
2023-10-09T19:48:49.279Z,0
2023-10-09T19:51:49.230Z,0
2023-10-09T19:54:50.195Z,0
2023-10-09T19:57:48.997Z,0
2023-10-09T20:03:48.422Z,0
2023-10-09T20:06:47.907Z,0
2023-10-09T20:09:47.988Z,0
2023-10-09T20:12:48.655Z,0
2023-10-09T20:15:50.617Z,0
2023-10-09T20:18:48.781Z,0
2023-10-09T20:21:48.821Z,0
2023-10-09T20:24:50.841Z,0
2023-10-09T20:27:48.974Z,0
2023-10-09T20:33:50.634Z,0
2023-10-09T20:36:48.757Z,0
2023-10-09T20:39:49.130Z,0
2023-10-09T20:42:49.894Z,0
2023-10-09T20:48:49.525Z,0
2023-10-09T20:52:01.835Z,0
2023-10-09T20:54:49.182Z,0
2023-10-09T20:57:49.343Z,0
2023-10-09T21:00:47.452Z,0
2023-10-09T21:03:47.617Z,0
2023-10-09T21:06:46.825Z,0
2023-10-09T21:09:47.947Z,0
2023-10-09T21:12:48.395Z,0
2023-10-09T21:18:48.235Z,0
2023-10-09T21:21:49.113Z,0
2023-10-09T21:24:47.255Z,0
2023-10-09T21:27:47.229Z,0
2023-10-09T21:33:47.334Z,0
2023-10-09T21:36:46.955Z,0
2023-10-09T21:39:47.697Z,0
2023-10-09T21:42:47.499Z,0
2023-10-09T21:48:48.492Z,0
2023-10-09T21:51:49.942Z,0
2023-10-09T21:54:48.814Z,0
2023-10-09T21:57:49.381Z,0
2023-10-09T22:03:48.318Z,0
2023-10-09T22:06:47.711Z,0
2023-10-09T22:09:48.458Z,0
2023-10-09T22:12:46.661Z,0
2023-10-09T22:15:47.129Z,0
2023-10-09T22:18:49.822Z,0
2023-10-09T22:21:46.869Z,0
2023-10-09T22:24:47.217Z,0
2023-10-09T22:27:47.936Z,0
2023-10-09T22:30:47.011Z,0
2023-10-09T22:33:47.437Z,0
2023-10-09T22:37:07.801Z,0
2023-10-09T22:40:30.184Z,0
2023-10-09T22:42:48.457Z,0
2023-10-09T22:45:48.173Z,0
2023-10-09T22:48:49.038Z,0
2023-10-09T22:54:49.828Z,0
2023-10-09T22:57:50.651Z,0
2023-10-09T23:00:47.196Z,0
2023-10-09T23:03:47.608Z,0
2023-10-09T23:06:47.480Z,0
2023-10-09T23:09:48.515Z,0
2023-10-09T23:12:47.436Z,0
2023-10-09T23:15:48.283Z,0
2023-10-09T23:18:50.479Z,0
2023-10-09T23:21:48.222Z,0
2023-10-09T23:24:48.433Z,0
2023-10-09T23:27:50.291Z,0
2023-10-09T23:30:48.701Z,0
2023-10-09T23:33:49.055Z,0
2023-10-09T23:36:49.521Z,0
2023-10-09T23:39:48.609Z,0
2023-10-09T23:42:48.528Z,0
2023-10-09T23:45:49.288Z,0
2023-10-09T23:48:49.246Z,0
2023-10-09T23:51:48.978Z,0
2023-10-09T23:54:50.297Z,0
2023-10-09T23:57:49.014Z,0
